Mountain Grove, Missouri
Current Conditions -  °F | °C
As of 9:53 AM on Sunday 23 Nov 2014 (Local Time) from KUNO Reporting Station
Light Rain Light Rain  
Wind Chill: 54°   Ceiling: 400
Heat Index: 54°   Visibility: 6mi
Dew Point: 52°   Wind: 10mph
Humidity: 93%   Direction: 150°SSE
Pressure: 29.59"   Gusts: NA
Location:  37.13°N, 92.26°W
Report Text: KUNO 231553Z AUTO 15009KT 6SM -RA BR OVC004 12/11 A2959 RMK AO2 SLP016 P0003 T01220111
Loading
Personal Weather Stations






























Interactive Weather Map New forecast layout! Learn more

10-Day Weather Forecast

Advertisements
Track Severe Weather on mobile